createdAt,value
2023-02-26T00:01:50.892Z,97783.84
2023-02-26T00:04:19.752Z,97782.50
2023-02-26T00:06:55.787Z,97781.67
2023-02-26T00:09:26.572Z,97778.58
2023-02-26T00:11:55.724Z,97789.30
2023-02-26T00:14:24.902Z,97793.67
2023-02-26T00:17:31.106Z,97799.38
2023-02-26T00:20:02.565Z,97800.25
2023-02-26T00:22:31.737Z,97798.34
2023-02-26T00:25:00.918Z,97802.98
2023-02-26T00:27:29.196Z,97809.33
2023-02-26T00:29:57.684Z,97819.89
2023-02-26T00:32:26.054Z,97820.65
2023-02-26T00:34:54.394Z,97832.57
2023-02-26T00:37:44.305Z,97837.80
2023-02-26T00:40:34.291Z,97813.77
2023-02-26T00:43:06.459Z,97808.77
2023-02-26T00:45:36.315Z,97800.00
2023-02-26T00:48:07.281Z,97813.61
2023-02-26T00:50:36.007Z,97820.34
2023-02-26T00:53:17.396Z,97813.79
2023-02-26T00:55:45.970Z,97827.69
2023-02-26T00:58:14.046Z,97837.80
2023-02-26T01:00:42.345Z,97848.42
2023-02-26T01:03:12.271Z,97854.86
2023-02-26T01:05:41.268Z,97873.77
2023-02-26T01:08:17.656Z,97875.86
2023-02-26T01:10:46.842Z,97872.33
2023-02-26T01:13:15.380Z,97875.14
2023-02-26T01:15:52.498Z,97882.87
2023-02-26T01:18:26.599Z,97880.53
2023-02-26T01:20:57.381Z,97867.34
2023-02-26T01:23:26.489Z,97869.59
2023-02-26T01:26:04.184Z,97869.11
2023-02-26T01:28:32.883Z,97879.48
2023-02-26T01:31:05.652Z,97893.02
2023-02-26T01:33:39.567Z,97906.48
2023-02-26T01:36:09.594Z,97914.15
2023-02-26T01:39:04.668Z,97915.73
2023-02-26T01:41:47.563Z,97921.79
2023-02-26T01:44:41.324Z,97915.95
2023-02-26T01:47:23.934Z,97927.38
2023-02-26T01:49:52.309Z,97925.69
2023-02-26T01:52:32.770Z,97940.58
2023-02-26T01:55:05.592Z,97945.42
2023-02-26T01:57:33.763Z,97943.70
2023-02-26T02:00:06.755Z,97950.14
2023-02-26T02:02:42.132Z,97960.75
2023-02-26T02:05:18.678Z,97973.20
2023-02-26T02:07:48.179Z,97969.95
2023-02-26T02:10:16.634Z,97975.35
2023-02-26T02:13:01.984Z,97982.79
2023-02-26T02:15:54.170Z,97983.05
2023-02-26T02:19:03.890Z,97986.91
2023-02-26T02:21:50.908Z,97987.64
2023-02-26T02:24:49.937Z,97990.63
2023-02-26T02:27:40.536Z,97999.63
2023-02-26T02:30:46.580Z,97998.95
2023-02-26T02:33:16.564Z,98001.91
2023-02-26T02:35:46.441Z,98005.85
2023-02-26T02:38:16.448Z,98010.63
2023-02-26T02:40:50.209Z,98015.79
2023-02-26T02:43:28.077Z,98015.96
2023-02-26T02:46:03.365Z,98022.34
2023-02-26T02:48:36.000Z,98025.98
2023-02-26T02:51:14.979Z,98028.03
2023-02-26T02:53:50.965Z,98029.23
2023-02-26T02:56:29.702Z,98024.23
2023-02-26T02:59:25.436Z,98024.11
2023-02-26T03:02:13.729Z,98024.63
2023-02-26T03:04:42.977Z,98029.60
2023-02-26T03:07:11.871Z,98029.44
2023-02-26T03:09:40.148Z,98033.92
2023-02-26T03:12:08.354Z,98042.55
2023-02-26T03:14:40.406Z,98045.00
2023-02-26T03:17:17.708Z,98050.35
2023-02-26T03:19:49.137Z,98055.15
2023-02-26T03:22:30.396Z,98059.45
2023-02-26T03:25:05.986Z,98064.79
2023-02-26T03:27:46.586Z,98070.48
2023-02-26T03:30:59.496Z,98076.01
2023-02-26T03:33:51.878Z,98084.48
2023-02-26T03:36:23.713Z,98085.17
2023-02-26T03:39:07.113Z,98090.03
2023-02-26T03:41:47.029Z,98088.55
2023-02-26T03:44:33.969Z,98097.61
2023-02-26T03:47:05.292Z,98101.83
2023-02-26T03:49:36.888Z,98101.43
2023-02-26T03:52:05.130Z,98101.16
2023-02-26T03:55:09.992Z,98110.98
2023-02-26T03:58:02.217Z,98113.35
2023-02-26T04:00:33.481Z,98113.71
2023-02-26T04:03:08.326Z,98122.42
2023-02-26T04:05:39.550Z,98128.77
2023-02-26T04:08:09.386Z,98139.12
2023-02-26T04:10:44.288Z,98146.48
2023-02-26T04:13:15.058Z,98158.80
2023-02-26T04:15:43.319Z,98167.26
2023-02-26T04:18:11.534Z,98173.63
2023-02-26T04:20:39.562Z,98171.87
2023-02-26T04:23:07.905Z,98173.58
2023-02-26T04:25:37.530Z,98169.27
2023-02-26T04:28:05.987Z,98169.30
2023-02-26T04:30:34.988Z,98172.04
2023-02-26T04:33:06.355Z,98175.80
2023-02-26T04:35:34.551Z,98176.95
2023-02-26T04:38:02.686Z,98178.63
2023-02-26T04:40:31.914Z,98187.89
2023-02-26T04:43:00.619Z,98197.75
2023-02-26T04:45:29.524Z,98197.27
2023-02-26T04:48:03.017Z,98198.06
2023-02-26T04:50:34.343Z,98199.15
2023-02-26T04:53:02.413Z,98207.59
2023-02-26T04:55:30.487Z,98207.91
2023-02-26T04:58:02.732Z,98203.38
2023-02-26T05:00:31.821Z,98200.29
2023-02-26T05:02:59.924Z,98206.80
2023-02-26T05:05:27.960Z,98218.36
2023-02-26T05:08:01.795Z,98223.70
2023-02-26T05:10:30.178Z,98231.91
2023-02-26T05:12:58.231Z,98242.50
2023-02-26T05:15:26.382Z,98252.05
2023-02-26T05:17:54.904Z,98262.80
2023-02-26T05:20:23.091Z,98265.26
2023-02-26T05:22:51.865Z,98265.00
2023-02-26T05:25:20.376Z,98265.65
2023-02-26T05:27:48.625Z,98269.23
2023-02-26T05:30:16.924Z,98272.79
2023-02-26T05:32:45.427Z,98277.84
2023-02-26T05:35:13.812Z,98276.52
2023-02-26T05:37:42.112Z,98277.80
2023-02-26T05:40:11.402Z,98284.42
2023-02-26T05:42:40.877Z,98286.06
2023-02-26T05:45:12.098Z,98283.54
2023-02-26T05:47:40.370Z,98285.89
2023-02-26T05:50:10.390Z,98289.63
2023-02-26T05:52:39.152Z,98294.56
2023-02-26T05:55:13.778Z,98294.52
2023-02-26T05:57:45.644Z,98300.34
2023-02-26T06:00:14.440Z,98302.69
2023-02-26T06:02:43.566Z,98309.22
2023-02-26T06:05:11.753Z,98307.62
2023-02-26T06:07:42.375Z,98307.80
2023-02-26T06:10:11.372Z,98310.55
2023-02-26T06:12:41.174Z,98317.78
2023-02-26T06:15:10.540Z,98329.33
2023-02-26T06:17:40.862Z,98336.70
2023-02-26T06:20:17.197Z,98344.52
2023-02-26T06:22:45.287Z,98346.38
2023-02-26T06:25:13.519Z,98358.65
2023-02-26T06:27:41.927Z,98362.98
2023-02-26T06:30:11.045Z,98366.79
2023-02-26T06:32:39.856Z,98374.08
2023-02-26T06:35:08.663Z,98379.98
2023-02-26T06:37:41.558Z,98388.94
2023-02-26T06:40:10.902Z,98394.41
2023-02-26T06:42:39.097Z,98400.69
2023-02-26T06:45:07.862Z,98404.64
2023-02-26T06:47:36.080Z,98416.48
2023-02-26T06:50:05.322Z,98427.45
2023-02-26T06:52:35.315Z,98426.14
2023-02-26T06:55:04.610Z,98424.84
2023-02-26T06:57:33.265Z,98429.25
2023-02-26T07:00:01.395Z,98433.23
2023-02-26T07:02:29.925Z,98438.05
2023-02-26T07:04:58.266Z,98442.08
2023-02-26T07:07:26.532Z,98443.35
2023-02-26T07:09:54.666Z,98448.02
2023-02-26T07:12:22.744Z,98448.70
2023-02-26T07:14:50.803Z,98450.70
2023-02-26T07:17:21.917Z,98451.59
2023-02-26T07:19:51.545Z,98455.13
2023-02-26T07:22:21.861Z,98458.09
2023-02-26T07:24:51.412Z,98458.33
2023-02-26T07:27:19.760Z,98463.39
2023-02-26T07:29:49.828Z,98460.34
2023-02-26T07:32:18.244Z,98463.01
2023-02-26T07:34:46.361Z,98467.70
2023-02-26T07:37:14.817Z,98467.77
2023-02-26T07:39:43.315Z,98472.68
2023-02-26T07:42:12.219Z,98480.32
2023-02-26T07:44:43.876Z,98485.20
2023-02-26T07:47:12.235Z,98485.08
2023-02-26T07:49:40.396Z,98478.88
2023-02-26T07:52:15.599Z,98478.79
2023-02-26T07:54:50.335Z,98484.58
2023-02-26T07:57:19.222Z,98488.72
2023-02-26T07:59:47.583Z,98490.02
2023-02-26T08:02:17.081Z,98499.77
2023-02-26T08:04:45.378Z,98500.86
2023-02-26T08:07:13.668Z,98506.31
2023-02-26T08:09:42.319Z,98509.42
2023-02-26T08:12:10.885Z,98512.09
2023-02-26T08:14:42.973Z,98506.72
2023-02-26T08:17:11.729Z,98507.58
2023-02-26T08:19:40.673Z,98509.48
2023-02-26T08:22:08.921Z,98509.70
2023-02-26T08:24:36.924Z,98504.38
2023-02-26T08:27:07.457Z,98502.85
2023-02-26T08:29:39.824Z,98502.20
2023-02-26T08:32:08.314Z,98503.71
2023-02-26T08:34:37.426Z,98511.12
2023-02-26T08:37:05.716Z,98515.38
2023-02-26T08:39:38.475Z,98518.92
2023-02-26T08:42:07.485Z,98526.38
2023-02-26T08:44:38.290Z,98531.81
2023-02-26T08:47:06.369Z,98534.64
2023-02-26T08:49:35.111Z,98540.67
2023-02-26T08:52:03.454Z,98541.63
2023-02-26T08:54:33.902Z,98542.38
2023-02-26T08:57:02.025Z,98550.70
2023-02-26T08:59:30.173Z,98552.87
2023-02-26T09:01:58.405Z,98549.48
2023-02-26T09:04:28.219Z,98550.97
2023-02-26T09:06:57.978Z,98555.34
2023-02-26T09:09:26.052Z,98559.26
2023-02-26T09:11:54.172Z,98559.83
2023-02-26T09:14:22.540Z,98563.11
2023-02-26T09:16:53.314Z,98571.52
2023-02-26T09:19:21.748Z,98573.38
2023-02-26T09:21:50.440Z,98577.19
2023-02-26T09:24:23.617Z,98580.95
2023-02-26T09:26:51.905Z,98591.09
2023-02-26T09:29:20.630Z,98595.56
2023-02-26T09:31:48.851Z,98603.20
2023-02-26T09:34:20.764Z,98612.92
2023-02-26T09:36:49.373Z,98611.98
2023-02-26T09:39:17.487Z,98614.90
2023-02-26T09:41:50.593Z,98621.77
2023-02-26T09:44:23.596Z,98617.13
2023-02-26T09:47:15.809Z,98613.41
2023-02-26T09:49:56.115Z,98612.22
2023-02-26T09:52:38.241Z,98613.06
2023-02-26T09:55:31.217Z,98614.45
2023-02-26T09:58:01.453Z,98615.50
2023-02-26T10:00:44.604Z,98612.14
2023-02-26T10:03:30.788Z,98614.09
2023-02-26T10:06:22.397Z,98613.75
2023-02-26T10:09:01.377Z,98609.79
2023-02-26T10:11:34.728Z,98609.91
2023-02-26T10:14:05.285Z,98610.33
2023-02-26T10:16:36.333Z,98601.99
2023-02-26T10:19:09.049Z,98606.53
2023-02-26T10:21:54.786Z,98607.83
2023-02-26T10:24:49.177Z,98603.33
2023-02-26T10:27:56.034Z,98606.73
2023-02-26T10:30:40.138Z,98613.36
2023-02-26T10:33:25.312Z,98615.58
2023-02-26T10:35:55.053Z,98617.22
2023-02-26T10:38:25.760Z,98619.73
2023-02-26T10:40:59.755Z,98623.44
2023-02-26T10:43:33.499Z,98630.02
2023-02-26T10:46:17.864Z,98634.14
2023-02-26T10:49:04.392Z,98641.26
2023-02-26T10:51:36.475Z,98642.86
2023-02-26T10:54:21.601Z,98644.48
2023-02-26T10:56:49.826Z,98647.52
2023-02-26T10:59:21.626Z,98649.97
2023-02-26T11:01:51.197Z,98647.02
2023-02-26T11:04:24.196Z,98653.63
2023-02-26T11:06:58.050Z,98654.15
2023-02-26T11:09:29.165Z,98658.66
2023-02-26T11:12:06.903Z,98661.00
2023-02-26T11:14:36.682Z,98666.63
2023-02-26T11:17:10.679Z,98659.89
2023-02-26T11:19:41.740Z,98665.02
2023-02-26T11:22:12.751Z,98664.27
2023-02-26T11:24:47.249Z,98669.73
2023-02-26T11:27:18.610Z,98670.92
2023-02-26T11:29:48.738Z,98671.31
2023-02-26T11:32:30.341Z,98674.36
2023-02-26T11:35:08.523Z,98685.66
2023-02-26T11:37:41.493Z,98688.67
2023-02-26T11:40:15.308Z,98695.31
2023-02-26T11:42:57.517Z,98700.42
2023-02-26T11:45:25.916Z,98703.19
2023-02-26T11:48:06.409Z,98703.42
2023-02-26T11:50:44.131Z,98711.98
2023-02-26T11:53:23.030Z,98715.66
2023-02-26T11:56:34.434Z,98716.70
2023-02-26T11:59:24.952Z,98714.60
2023-02-26T12:01:55.586Z,98716.73
2023-02-26T12:04:32.039Z,98715.09
2023-02-26T12:07:00.269Z,98715.75
2023-02-26T12:09:31.080Z,98725.95
2023-02-26T12:12:10.389Z,98732.58
2023-02-26T12:14:39.623Z,98736.45
2023-02-26T12:17:38.660Z,98731.14
2023-02-26T12:20:17.841Z,98733.75
2023-02-26T12:23:08.412Z,98740.81
2023-02-26T12:25:49.765Z,98746.31
2023-02-26T12:28:43.472Z,98756.30
2023-02-26T12:31:30.168Z,98763.05
2023-02-26T12:34:25.241Z,98768.13
2023-02-26T12:37:10.118Z,98767.84
2023-02-26T12:39:50.612Z,98763.89
2023-02-26T12:42:30.886Z,98761.87
2023-02-26T12:45:13.942Z,98760.35
2023-02-26T12:48:18.832Z,98760.59
2023-02-26T12:51:15.723Z,98761.45
2023-02-26T12:53:43.908Z,98771.53
2023-02-26T12:56:21.571Z,98769.84
2023-02-26T12:59:01.938Z,98776.80
2023-02-26T13:01:35.008Z,98780.00
2023-02-26T13:04:29.558Z,98778.09
2023-02-26T13:07:10.570Z,98787.48
2023-02-26T13:10:17.479Z,98802.80
2023-02-26T13:12:55.309Z,98806.29
2023-02-26T13:15:38.920Z,98802.64
2023-02-26T13:18:26.719Z,98801.44
2023-02-26T13:21:00.842Z,98800.98
2023-02-26T13:23:53.370Z,98809.68
2023-02-26T13:26:22.688Z,98815.90
2023-02-26T13:28:57.358Z,98823.13
2023-02-26T13:31:37.429Z,98823.38
2023-02-26T13:34:11.563Z,98820.66
2023-02-26T13:36:40.999Z,98823.34
2023-02-26T13:39:34.119Z,98828.14
2023-02-26T13:42:24.382Z,98834.02
2023-02-26T13:45:14.843Z,98834.09
2023-02-26T13:48:09.407Z,98842.62
2023-02-26T13:50:53.698Z,98847.35
2023-02-26T13:53:28.272Z,98853.09
2023-02-26T13:56:06.963Z,98852.53
2023-02-26T13:58:43.496Z,98856.54
2023-02-26T14:01:16.245Z,98853.22
2023-02-26T14:04:08.779Z,98859.08
2023-02-26T14:06:47.656Z,98859.75
2023-02-26T14:09:22.540Z,98859.70
2023-02-26T14:12:03.930Z,98858.48
2023-02-26T14:15:07.956Z,98859.33
2023-02-26T14:17:48.248Z,98868.73
2023-02-26T14:20:25.779Z,98874.00
2023-02-26T14:22:59.830Z,98874.44
2023-02-26T14:25:33.243Z,98881.19
2023-02-26T14:28:34.253Z,98881.35
2023-02-26T14:31:14.094Z,98886.79
2023-02-26T14:33:59.435Z,98892.58
2023-02-26T14:36:39.154Z,98892.30
2023-02-26T14:39:16.669Z,98890.82
2023-02-26T14:41:45.062Z,98896.42
2023-02-26T14:44:21.098Z,98893.56
2023-02-26T14:46:51.656Z,98896.02
2023-02-26T14:49:40.657Z,98904.73
2023-02-26T14:52:54.261Z,98911.35
2023-02-26T14:55:29.062Z,98918.14
2023-02-26T14:58:20.685Z,98923.37
2023-02-26T15:01:22.858Z,98926.62
2023-02-26T15:04:22.955Z,98921.03
2023-02-26T15:07:09.285Z,98924.89
2023-02-26T15:09:41.879Z,98925.13
2023-02-26T15:12:28.476Z,98931.80
2023-02-26T15:15:03.265Z,98931.96
2023-02-26T15:17:31.438Z,98932.63
2023-02-26T15:20:38.970Z,98940.42
2023-02-26T15:23:31.065Z,98942.48
2023-02-26T15:25:59.322Z,98948.91
2023-02-26T15:28:38.035Z,98953.27
2023-02-26T15:31:07.949Z,98953.83
2023-02-26T15:33:36.310Z,98957.70
2023-02-26T15:36:07.638Z,98968.55
2023-02-26T15:38:50.423Z,98971.73
2023-02-26T15:41:18.815Z,98981.95
2023-02-26T15:43:52.877Z,98983.30
2023-02-26T15:46:22.471Z,98987.66
2023-02-26T15:48:50.683Z,98989.00
2023-02-26T15:51:22.225Z,98990.48
2023-02-26T15:53:51.781Z,98986.98
2023-02-26T15:56:23.206Z,98986.78
2023-02-26T15:58:57.624Z,98991.88
2023-02-26T16:01:27.457Z,98999.53
2023-02-26T16:04:07.374Z,99001.93
2023-02-26T16:06:41.298Z,99003.92
2023-02-26T16:09:19.144Z,99009.46
2023-02-26T16:11:50.910Z,99011.30
2023-02-26T16:14:24.557Z,99016.52
2023-02-26T16:16:54.469Z,99019.65
2023-02-26T16:19:49.055Z,99026.76
2023-02-26T16:22:40.611Z,99021.84
2023-02-26T16:25:36.982Z,99032.38
2023-02-26T16:28:21.443Z,99041.58
2023-02-26T16:30:54.303Z,99041.94
2023-02-26T16:33:25.245Z,99044.98
2023-02-26T16:36:10.470Z,99044.65
2023-02-26T16:38:49.655Z,99050.26
2023-02-26T16:41:26.938Z,99056.02
2023-02-26T16:43:58.052Z,99065.52
2023-02-26T16:46:45.292Z,99061.24
2023-02-26T16:49:17.326Z,99069.33
2023-02-26T16:51:45.912Z,99069.45
2023-02-26T16:54:27.189Z,99076.41
2023-02-26T16:57:28.580Z,99084.40
2023-02-26T16:59:58.799Z,99088.13
2023-02-26T17:02:29.611Z,99090.13
2023-02-26T17:04:59.955Z,99087.45
2023-02-26T17:07:33.830Z,99087.91
2023-02-26T17:10:21.494Z,99090.80
2023-02-26T17:12:51.658Z,99099.82
2023-02-26T17:15:36.614Z,99101.27
2023-02-26T17:18:09.294Z,99106.79
2023-02-26T17:20:37.636Z,99110.58
2023-02-26T17:23:08.918Z,99111.74
2023-02-26T17:25:39.904Z,99115.01
2023-02-26T17:28:08.511Z,99109.35
2023-02-26T17:30:36.814Z,99104.19
2023-02-26T17:33:07.957Z,99106.30
2023-02-26T17:35:36.179Z,99113.96
2023-02-26T17:38:05.839Z,99114.34
2023-02-26T17:40:36.687Z,99115.87
2023-02-26T17:43:06.092Z,99114.80
2023-02-26T17:45:34.843Z,99114.27
2023-02-26T17:48:03.396Z,99116.67
2023-02-26T17:50:44.064Z,99123.96
2023-02-26T17:53:12.928Z,99127.91
2023-02-26T17:55:41.117Z,99128.03
2023-02-26T17:58:38.677Z,99130.02
2023-02-26T18:01:08.006Z,99139.70
2023-02-26T18:03:39.993Z,99139.48
2023-02-26T18:06:11.702Z,99149.58
2023-02-26T18:08:40.898Z,99152.09
2023-02-26T18:11:11.933Z,99149.99
2023-02-26T18:13:40.881Z,99152.55
2023-02-26T18:16:21.619Z,99158.98
2023-02-26T18:18:50.934Z,99159.58
2023-02-26T18:21:20.622Z,99163.54
2023-02-26T18:23:48.773Z,99169.20
2023-02-26T18:26:17.704Z,99168.19
2023-02-26T18:28:45.711Z,99173.55
2023-02-26T18:31:14.046Z,99172.37
2023-02-26T18:33:44.615Z,99172.40
2023-02-26T18:36:39.883Z,99174.89
2023-02-26T18:39:12.990Z,99175.96
2023-02-26T18:41:41.560Z,99179.96
2023-02-26T18:44:09.827Z,99182.11
2023-02-26T18:46:40.357Z,99188.02
2023-02-26T18:49:19.407Z,99191.55
2023-02-26T18:51:47.886Z,99194.51
2023-02-26T18:54:16.175Z,99194.36
2023-02-26T18:56:46.048Z,99195.25
2023-02-26T18:59:16.556Z,99190.95
2023-02-26T19:01:48.122Z,99190.95
2023-02-26T19:04:16.509Z,99197.90
2023-02-26T19:06:50.579Z,99201.90
2023-02-26T19:09:19.958Z,99210.05
2023-02-26T19:11:49.308Z,99210.60
2023-02-26T19:14:19.792Z,99213.58
2023-02-26T19:16:48.430Z,99223.08
2023-02-26T19:19:18.968Z,99228.96
2023-02-26T19:21:47.328Z,99234.65
2023-02-26T19:24:17.668Z,99233.42
2023-02-26T19:26:45.887Z,99243.27
2023-02-26T19:29:16.953Z,99244.67
2023-02-26T19:31:45.705Z,99251.61
2023-02-26T19:34:14.739Z,99250.74
2023-02-26T19:36:48.506Z,99257.69
2023-02-26T19:39:16.951Z,99259.80
2023-02-26T19:41:53.514Z,99262.29
2023-02-26T19:44:22.401Z,99263.70
2023-02-26T19:46:50.671Z,99262.50
2023-02-26T19:49:19.070Z,99269.27
2023-02-26T19:51:47.255Z,99272.77
2023-02-26T19:54:15.586Z,99277.12
2023-02-26T19:56:43.963Z,99280.25
2023-02-26T19:59:12.545Z,99283.93
2023-02-26T20:01:41.701Z,99284.64
2023-02-26T20:04:11.833Z,99289.87
2023-02-26T20:06:41.750Z,99293.35
2023-02-26T20:09:17.257Z,99295.25
2023-02-26T20:11:47.188Z,99297.02
2023-02-26T20:14:15.593Z,99295.31
2023-02-26T20:16:44.907Z,99299.14
2023-02-26T20:19:14.733Z,99308.17
2023-02-26T20:21:45.195Z,99310.27
2023-02-26T20:24:15.146Z,99315.84
2023-02-26T20:26:45.003Z,99319.16
2023-02-26T20:29:18.493Z,99322.85
2023-02-26T20:31:49.698Z,99328.95
2023-02-26T20:34:20.493Z,99339.03
2023-02-26T20:36:50.120Z,99343.58
2023-02-26T20:39:21.060Z,99343.98
2023-02-26T20:41:50.648Z,99347.46
2023-02-26T20:44:18.784Z,99350.77
2023-02-26T20:46:48.179Z,99351.46
2023-02-26T20:49:17.568Z,99355.45
2023-02-26T20:51:46.369Z,99356.14
2023-02-26T20:54:15.178Z,99354.24
2023-02-26T20:56:44.165Z,99360.34
2023-02-26T20:59:12.386Z,99365.56
2023-02-26T21:01:42.804Z,99368.23
2023-02-26T21:04:11.121Z,99365.70
2023-02-26T21:06:40.464Z,99363.32
2023-02-26T21:09:11.369Z,99359.89
2023-02-26T21:11:39.467Z,99363.22
2023-02-26T21:14:09.045Z,99364.95
2023-02-26T21:16:40.728Z,99368.46
2023-02-26T21:19:08.937Z,99369.17
2023-02-26T21:21:38.523Z,99370.56
2023-02-26T21:24:06.896Z,99375.58
2023-02-26T21:26:35.971Z,99382.52
2023-02-26T21:29:05.006Z,99382.68
2023-02-26T21:31:36.382Z,99384.92
2023-02-26T21:34:29.934Z,99390.25
2023-02-26T21:36:56.394Z,99390.92
2023-02-26T21:39:25.079Z,99396.08
2023-02-26T21:41:53.163Z,99395.02
2023-02-26T21:44:21.319Z,99394.34
2023-02-26T21:46:49.614Z,99399.36
2023-02-26T21:49:17.609Z,99403.48
2023-02-26T21:51:45.673Z,99407.79
2023-02-26T21:54:14.557Z,99409.50
2023-02-26T21:56:42.781Z,99411.77
2023-02-26T21:59:11.559Z,99413.90
2023-02-26T22:01:40.855Z,99417.29
2023-02-26T22:04:12.168Z,99418.73
2023-02-26T22:06:42.421Z,99420.84
2023-02-26T22:09:11.117Z,99429.19
2023-02-26T22:11:42.102Z,99426.89
2023-02-26T22:14:10.587Z,99426.95
2023-02-26T22:16:38.705Z,99432.36
2023-02-26T22:19:07.325Z,99437.11
2023-02-26T22:21:35.415Z,99440.14
2023-02-26T22:24:04.032Z,99448.25
2023-02-26T22:26:32.306Z,99452.77
2023-02-26T22:29:00.944Z,99456.77
2023-02-26T22:31:30.098Z,99458.36
2023-02-26T22:33:59.217Z,99460.44
2023-02-26T22:36:30.357Z,99461.66
2023-02-26T22:38:58.499Z,99464.27
2023-02-26T22:41:26.673Z,99470.90
2023-02-26T22:43:55.716Z,99474.05
2023-02-26T22:46:25.695Z,99476.14
2023-02-26T22:48:55.248Z,99480.09
2023-02-26T22:51:24.566Z,99484.23
2023-02-26T22:53:53.086Z,99482.32
2023-02-26T22:56:21.326Z,99483.54
2023-02-26T22:58:49.452Z,99486.84
2023-02-26T23:01:17.744Z,99488.38
2023-02-26T23:03:46.132Z,99493.42
2023-02-26T23:06:14.784Z,99498.13
2023-02-26T23:08:42.976Z,99504.69
2023-02-26T23:11:11.046Z,99513.89
2023-02-26T23:13:42.456Z,99518.23
2023-02-26T23:16:30.530Z,99514.98
2023-02-26T23:19:02.880Z,99516.05
2023-02-26T23:21:32.444Z,99515.50
2023-02-26T23:24:00.712Z,99512.94
2023-02-26T23:26:28.931Z,99515.05
2023-02-26T23:28:56.980Z,99523.52
2023-02-26T23:31:25.789Z,99524.04
2023-02-26T23:33:54.169Z,99534.06
2023-02-26T23:36:22.905Z,99538.59
2023-02-26T23:38:51.226Z,99544.15
2023-02-26T23:41:20.056Z,99551.42
2023-02-26T23:43:48.893Z,99555.60
2023-02-26T23:46:19.672Z,99563.74
2023-02-26T23:48:51.176Z,99566.04
2023-02-26T23:51:19.409Z,99570.38
2023-02-26T23:53:47.787Z,99570.05
2023-02-26T23:56:16.288Z,99573.85
2023-02-26T23:58:44.664Z,99574.56
